Time;durP1;ratioP1;P1;durP2;ratioP2;P2;SDS_P1;SDS_P2;PMS_P1;PMS_P2;Temp;Humidity;BMP_temperature;BMP_pressure;BME280_temperature;BME280_humidity;BME280_pressure;Samples;Min_cycle;Max_cycle;Signal;HPM_P1;HPM_P2
2022/07/13 00:01:30;;;;;;;;;6.00;5.00;;;;;29.36;22.86;101684.66;5040702;28;45356;-57
2022/07/13 00:03:56;;;;;;;;;7.50;5.75;;;;;29.30;22.96;101687.88;5039867;28;45643;-57
2022/07/13 00:06:21;;;;;;;;;4.25;4.00;;;;;29.27;22.98;101686.22;5022719;28;46215;-57
2022/07/13 00:08:46;;;;;;;;;4.50;4.50;;;;;29.26;22.88;101686.31;5034083;28;47043;-57
2022/07/13 00:11:12;;;;;;;;;5.75;5.25;;;;;29.23;22.83;101678.47;5059743;28;45205;-57
2022/07/13 00:13:37;;;;;;;;;4.00;4.00;;;;;29.17;23.01;101679.84;5060711;28;45463;-57
2022/07/13 00:16:03;;;;;;;;;5.75;5.50;;;;;29.16;22.95;101689.78;5060409;28;45250;-57
2022/07/13 00:18:28;;;;;;;;;4.25;3.00;;;;;29.12;22.75;101682.00;5060631;28;45182;-57
2022/07/13 00:20:53;;;;;;;;;5.00;4.00;;;;;29.08;23.21;101676.00;5041968;28;45424;-57
2022/07/13 00:23:19;;;;;;;;;6.00;4.50;;;;;29.06;22.97;101683.38;5040467;28;45605;-57
2022/07/13 00:25:44;;;;;;;;;6.00;4.25;;;;;29.00;23.11;101679.28;5040005;28;45811;-57
2022/07/13 00:28:09;;;;;;;;;4.00;4.00;;;;;28.96;23.03;101672.41;5040454;28;45496;-57
2022/07/13 00:30:35;;;;;;;;;6.75;5.75;;;;;28.93;23.21;101677.19;5040368;28;45265;-57
2022/07/13 00:33:00;;;;;;;;;7.50;7.50;;;;;28.89;23.47;101665.72;5040069;28;45563;-57
2022/07/13 00:35:26;;;;;;;;;14.50;12.25;;;;;28.88;23.46;101669.44;5040052;28;45256;-57
2022/07/13 00:37:51;;;;;;;;;8.75;7.25;;;;;28.83;23.42;101667.09;5040407;28;45385;-57
2022/07/13 00:40:16;;;;;;;;;7.25;7.25;;;;;28.77;23.46;101666.72;5039956;28;45250;-57
2022/07/13 00:42:42;;;;;;;;;15.50;12.25;;;;;28.77;23.58;101675.66;5040128;28;45261;-57
2022/07/13 00:45:08;;;;;;;;;10.00;8.00;;;;;28.74;23.48;101673.19;5039842;28;45416;-57
2022/07/13 00:47:33;;;;;;;;;8.25;7.75;;;;;28.70;23.56;101674.41;5039934;28;45368;-57
2022/07/13 00:50:06;;;;;;;;;7.00;7.00;;;;;28.67;23.70;101677.38;5040126;28;45320;-57
2022/07/13 00:52:33;;;;;;;;;10.00;7.00;;;;;28.62;23.76;101660.59;5040061;28;45307;-57
2022/07/13 00:54:59;;;;;;;;;9.25;6.75;;;;;28.62;23.90;101666.00;5039409;28;46066;-57
2022/07/13 00:57:26;;;;;;;;;7.00;6.00;;;;;28.58;23.76;101661.78;5040011;28;45285;-57
2022/07/13 00:59:52;;;;;;;;;6.00;5.00;;;;;28.54;23.97;101662.03;5039696;28;45312;-57
2022/07/13 01:02:18;;;;;;;;;5.25;5.25;;;;;28.50;24.48;101656.97;5039800;28;45290;-57
2022/07/13 01:04:43;;;;;;;;;9.00;8.00;;;;;28.49;23.84;101664.25;5039636;28;46476;-57
2022/07/13 01:07:09;;;;;;;;;7.00;5.00;;;;;28.47;23.78;101660.78;5040036;28;45245;-57
2022/07/13 01:09:34;;;;;;;;;7.00;7.00;;;;;28.41;24.09;101653.13;5040594;28;45220;-57
2022/07/13 01:12:00;;;;;;;;;8.25;7.00;;;;;28.40;24.28;101654.09;5059636;28;45278;-57
2022/07/13 01:14:25;;;;;;;;;6.50;6.25;;;;;28.35;23.80;101657.19;5061061;28;46120;-57
2022/07/13 01:16:51;;;;;;;;;4.75;4.50;;;;;28.32;24.40;101648.44;5063442;28;45346;-57
2022/07/13 01:19:18;;;;;;;;;8.50;6.00;;;;;28.30;24.04;101656.66;5063346;28;45370;-57
2022/07/13 01:21:45;;;;;;;;;9.75;6.75;;;;;28.27;23.86;101650.63;5056119;28;45311;-57
2022/07/13 01:24:12;;;;;;;;;9.50;7.00;;;;;28.23;24.01;101652.69;5043178;28;45281;-57
2022/07/13 01:26:39;;;;;;;;;7.00;5.25;;;;;28.20;24.63;101661.91;5042993;28;45393;-57
2022/07/13 01:29:05;;;;;;;;;5.25;5.25;;;;;28.15;24.52;101653.28;5043164;28;45224;-57
2022/07/13 01:31:34;;;;;;;;;6.50;6.50;;;;;28.13;24.67;101646.25;5025112;28;45557;-57
2022/07/13 01:34:00;;;;;;;;;5.50;4.50;;;;;28.10;24.32;101657.28;5042746;28;46139;-57
2022/07/13 01:36:25;;;;;;;;;8.25;6.50;;;;;28.06;24.48;101653.94;5042919;28;45299;-57
2022/07/13 01:38:51;;;;;;;;;9.75;6.25;;;;;28.02;24.97;101655.13;5042774;28;45236;-57
2022/07/13 01:41:19;;;;;;;;;6.00;6.00;;;;;28.00;24.69;101654.38;5042878;28;45523;-57
2022/07/13 01:43:46;;;;;;;;;8.50;7.50;;;;;27.95;24.60;101656.53;5042812;28;46213;-57
2022/07/13 01:46:11;;;;;;;;;9.25;5.25;;;;;27.93;25.18;101661.22;5042658;28;45274;-57
2022/07/13 01:48:37;;;;;;;;;5.50;5.50;;;;;27.87;24.65;101658.00;5042768;28;45740;-57
2022/07/13 01:51:02;;;;;;;;;6.00;6.00;;;;;27.85;25.27;101656.38;5042818;28;45329;-57
2022/07/13 01:53:27;;;;;;;;;5.50;5.50;;;;;27.79;25.52;101649.59;5042611;28;45611;-57
2022/07/13 01:55:53;;;;;;;;;7.00;7.00;;;;;27.77;25.36;101654.22;5042647;28;45404;-57
2022/07/13 01:58:18;;;;;;;;;5.50;5.25;;;;;27.73;25.16;101650.03;5042557;28;45365;-57
2022/07/13 02:00:43;;;;;;;;;6.25;6.25;;;;;27.67;25.42;101645.94;5042523;28;45508;-57
2022/07/13 02:03:09;;;;;;;;;4.75;4.50;;;;;27.64;25.89;101643.47;5024636;28;47210;-57
2022/07/13 02:05:35;;;;;;;;;6.50;6.50;;;;;27.62;26.22;101649.94;5042682;28;45325;-57
2022/07/13 02:08:00;;;;;;;;;7.75;6.00;;;;;27.56;25.72;101646.72;5042475;28;45375;-57
2022/07/13 02:10:34;;;;;;;;;8.75;7.00;;;;;27.51;25.65;101637.22;5049982;28;45531;-57
2022/07/13 02:13:01;;;;;;;;;5.25;5.25;;;;;27.47;25.84;101635.72;5062358;28;46249;-57
2022/07/13 02:15:27;;;;;;;;;5.75;5.75;;;;;27.43;26.40;101626.97;5062512;28;45303;-57
2022/07/13 02:17:52;;;;;;;;;5.00;5.00;;;;;27.38;26.12;101630.00;5062374;28;45312;-57
2022/07/13 02:20:17;;;;;;;;;5.50;4.00;;;;;27.35;26.50;101632.03;5062500;28;45292;-57
2022/07/13 02:22:44;;;;;;;;;7.50;5.00;;;;;27.30;26.16;101631.50;5046551;28;45194;-57
2022/07/13 02:25:10;;;;;;;;;5.75;5.75;;;;;27.24;26.05;101625.59;5042049;28;45433;-57
2022/07/13 02:27:36;;;;;;;;;8.00;6.50;;;;;27.21;26.65;101620.41;5041664;28;45333;-57
2022/07/13 02:30:01;;;;;;;;;9.00;6.75;;;;;27.18;26.42;101626.03;5042079;28;45316;-57
2022/07/13 02:32:27;;;;;;;;;5.50;5.00;;;;;27.15;26.28;101623.53;5041784;28;45838;-57
2022/07/13 02:34:52;;;;;;;;;7.00;6.00;;;;;27.11;26.60;101622.03;5042180;28;46059;-57
2022/07/13 02:37:17;;;;;;;;;4.00;4.00;;;;;27.07;26.09;101626.78;5042110;28;45791;-56
2022/07/13 02:39:42;;;;;;;;;6.50;6.00;;;;;27.05;26.62;101617.06;5041782;28;49014;-57
2022/07/13 02:42:08;;;;;;;;;7.00;5.50;;;;;27.02;25.92;101628.94;5041923;28;45345;-57
2022/07/13 02:44:33;;;;;;;;;7.00;7.00;;;;;26.99;26.26;101615.63;5042017;28;45273;-57
2022/07/13 02:46:59;;;;;;;;;6.75;5.00;;;;;26.98;26.66;101622.03;5041702;28;48055;-57
2022/07/13 02:49:24;;;;;;;;;5.25;5.25;;;;;26.96;26.49;101620.41;5041797;28;49245;-56
2022/07/13 02:51:49;;;;;;;;;4.25;4.25;;;;;26.92;26.37;101612.53;5041783;28;48685;-57
2022/07/13 02:54:16;;;;;;;;;6.25;6.00;;;;;26.91;26.82;101613.50;5041830;28;45275;-57
2022/07/13 02:56:41;;;;;;;;;3.00;3.00;;;;;26.90;26.38;101610.91;5041503;28;45249;-57
2022/07/13 02:59:07;;;;;;;;;5.25;3.25;;;;;26.88;26.23;101610.13;5041665;28;45252;-57
2022/07/13 03:01:32;;;;;;;;;3.50;3.50;;;;;26.86;26.16;101612.94;5041478;28;45436;-57
2022/07/13 03:03:57;;;;;;;;;6.25;5.50;;;;;26.84;26.99;101606.81;5041735;28;45225;-57
2022/07/13 03:06:23;;;;;;;;;4.50;4.00;;;;;26.83;26.44;101610.47;5041749;28;45182;-57
2022/07/13 03:08:48;;;;;;;;;6.00;6.00;;;;;26.82;27.11;101611.44;5041552;28;47493;-57
2022/07/13 03:11:13;;;;;;;;;5.50;5.50;;;;;26.79;27.09;101614.34;5055578;28;46089;-57
2022/07/13 03:13:38;;;;;;;;;4.25;4.25;;;;;26.79;26.42;101613.50;5036373;28;45582;-57
2022/07/13 03:16:04;;;;;;;;;6.50;5.25;;;;;26.74;26.48;101608.41;5037609;28;45230;-57
2022/07/13 03:18:29;;;;;;;;;6.25;6.25;;;;;26.74;27.05;101608.41;5061588;28;45227;-57
2022/07/13 03:20:55;;;;;;;;;5.75;5.75;;;;;26.73;27.08;101603.97;5042602;28;46961;-57
2022/07/13 03:23:20;;;;;;;;;6.50;6.50;;;;;26.69;27.13;101603.31;5041481;28;45348;-56
2022/07/13 03:25:45;;;;;;;;;7.25;6.00;;;;;26.67;26.66;101607.09;5041187;28;45620;-57
2022/07/13 03:28:11;;;;;;;;;5.50;5.50;;;;;26.66;26.96;101614.31;5041467;28;45511;-57
2022/07/13 03:30:36;;;;;;;;;7.50;6.25;;;;;26.65;26.71;101609.88;5041218;28;45317;-57
2022/07/13 03:33:02;;;;;;;;;7.50;7.50;;;;;26.62;27.12;101612.78;5041034;28;45410;-57
2022/07/13 03:35:27;;;;;;;;;7.00;7.00;;;;;26.61;26.84;101614.59;5041435;28;45323;-57
2022/07/13 03:37:53;;;;;;;;;5.67;5.67;;;;;26.60;27.38;101617.41;5039895;28;45601;-57
2022/07/13 03:40:18;;;;;;;;;9.50;9.50;;;;;26.58;27.51;101614.84;5040800;28;46146;-57
2022/07/13 03:42:43;;;;;;;;;8.00;6.00;;;;;26.58;27.45;101616.69;5040796;28;45346;-57
2022/07/13 03:45:09;;;;;;;;;8.50;6.75;;;;;26.57;27.58;101617.63;5041217;28;45507;-57
2022/07/13 03:47:34;;;;;;;;;7.25;6.25;;;;;26.56;27.00;101622.16;5040780;28;45550;-57
2022/07/13 03:50:00;;;;;;;;;5.25;5.25;;;;;26.55;27.24;101614.19;5040775;28;45938;-57
2022/07/13 03:52:25;;;;;;;;;9.00;8.00;;;;;26.55;27.26;101614.19;5022918;28;45172;-57
2022/07/13 03:54:50;;;;;;;;;7.00;7.00;;;;;26.55;27.77;101625.84;5040791;28;45459;-57
2022/07/13 03:57:16;;;;;;;;;7.50;7.50;;;;;26.54;27.26;101618.72;5040595;28;45561;-57
2022/07/13 03:59:41;;;;;;;;;6.25;5.50;;;;;26.54;27.79;101628.59;5040703;28;46027;-57
2022/07/13 04:02:06;;;;;;;;;7.25;7.00;;;;;26.53;27.52;101625.06;5040751;28;45468;-57
2022/07/13 04:04:32;;;;;;;;;7.25;6.25;;;;;26.53;27.91;101624.22;5040816;28;45242;-57
2022/07/13 04:06:57;;;;;;;;;8.75;7.50;;;;;26.53;27.88;101632.31;5040651;28;45253;-57
2022/07/13 04:09:22;;;;;;;;;9.00;6.25;;;;;26.52;27.96;101623.34;5022493;28;50787;-57
2022/07/13 04:11:48;;;;;;;;;9.00;6.25;;;;;26.52;28.02;101628.72;5059454;28;45170;-57
2022/07/13 04:14:13;;;;;;;;;6.00;6.00;;;;;26.52;28.07;101625.19;5042795;28;45515;-57
2022/07/13 04:16:39;;;;;;;;;9.00;7.25;;;;;26.50;27.53;101622.56;5060400;28;45233;-57
2022/07/13 04:19:04;;;;;;;;;8.25;8.00;;;;;26.51;28.16;101628.84;5060533;28;45197;-57
2022/07/13 04:21:29;;;;;;;;;7.75;7.00;;;;;26.51;27.64;101637.75;5054575;28;46161;-57
2022/07/13 04:23:55;;;;;;;;;6.50;6.50;;;;;26.51;28.34;101628.84;5040533;28;45356;-57
2022/07/13 04:26:20;;;;;;;;;9.75;9.00;;;;;26.48;27.74;101618.25;5039850;28;50642;-57
2022/07/13 04:28:45;;;;;;;;;7.25;7.00;;;;;26.50;28.25;101629.78;5040164;28;51537;-57
2022/07/13 04:31:11;;;;;;;;;9.25;8.75;;;;;26.48;27.66;101626.31;5040054;28;45503;-57
2022/07/13 04:33:36;;;;;;;;;5.00;5.00;;;;;26.48;28.28;101629.03;5040543;28;45324;-57
2022/07/13 04:36:02;;;;;;;;;8.25;7.50;;;;;26.46;27.66;101626.44;5040181;28;45261;-56
2022/07/13 04:38:27;;;;;;;;;9.25;9.25;;;;;26.45;27.76;101627.41;5040128;28;45877;-57
2022/07/13 04:40:52;;;;;;;;;7.25;6.00;;;;;26.43;28.40;101619.44;5039749;28;45470;-57
2022/07/13 04:43:17;;;;;;;;;6.75;6.75;;;;;26.41;28.17;101623.19;5040343;28;45297;-57
2022/07/13 04:45:43;;;;;;;;;7.00;7.00;;;;;26.41;27.85;101623.19;5039746;28;46432;-57
2022/07/13 04:48:08;;;;;;;;;8.25;8.25;;;;;26.40;28.43;101621.47;5040068;28;46945;-56
2022/07/13 04:50:34;;;;;;;;;8.00;6.25;;;;;26.38;28.40;101624.28;5039296;28;46253;-56
2022/07/13 04:52:59;;;;;;;;;7.00;7.00;;;;;26.36;28.21;101615.41;5040396;28;45326;-56
2022/07/13 04:55:24;;;;;;;;;5.75;5.75;;;;;26.37;27.97;101619.84;5039594;28;45317;-56
2022/07/13 04:57:50;;;;;;;;;6.25;6.25;;;;;26.35;27.99;101624.50;5040006;28;46403;-56
2022/07/13 05:00:16;;;;;;;;;11.00;7.75;;;;;26.36;28.13;101614.56;5021969;28;45435;-57
2022/07/13 05:02:41;;;;;;;;;8.00;7.50;;;;;26.34;28.22;101613.78;5039908;28;45316;-56
2022/07/13 05:05:07;;;;;;;;;9.75;8.00;;;;;26.35;28.55;101626.31;5039753;28;45646;-57
2022/07/13 05:07:33;;;;;;;;;7.00;5.50;;;;;26.34;28.83;101622.75;5039835;28;45947;-56
2022/07/13 05:09:58;;;;;;;;;9.25;6.00;;;;;26.36;28.84;101619.94;5043336;28;45436;-57
2022/07/13 05:12:23;;;;;;;;;9.25;8.00;;;;;26.35;28.21;101620.91;5059986;28;45337;-57
2022/07/13 05:14:48;;;;;;;;;8.75;8.00;;;;;26.34;28.40;101619.19;5059704;28;45281;-57
2022/07/13 05:17:16;;;;;;;;;7.75;7.75;;;;;26.37;28.22;101625.22;5041626;28;45871;-57
2022/07/13 05:19:41;;;;;;;;;9.00;6.00;;;;;26.38;28.35;101620.72;5059571;28;45486;-57
2022/07/13 05:22:07;;;;;;;;;7.75;7.25;;;;;26.38;28.53;101628.81;5048709;28;45213;-57
2022/07/13 05:24:32;;;;;;;;;11.50;6.00;;;;;26.39;28.56;101622.44;5021656;28;45369;-55
2022/07/13 05:26:57;;;;;;;;;9.75;7.50;;;;;26.37;28.35;101619.00;5039466;28;46221;-57
2022/07/13 05:29:23;;;;;;;;;6.00;6.00;;;;;26.42;28.69;101627.63;5039379;28;45278;-57
2022/07/13 05:31:48;;;;;;;;;10.00;8.00;;;;;26.43;28.44;101630.22;5021735;28;45325;-56
2022/07/13 05:34:14;;;;;;;;;9.50;7.00;;;;;26.45;28.91;101632.78;5039342;28;45369;-57
2022/07/13 05:36:39;;;;;;;;;7.25;7.25;;;;;26.46;28.84;101630.97;5039571;28;45366;-57
2022/07/13 05:39:05;;;;;;;;;8.50;8.00;;;;;26.49;29.11;101633.44;5039231;28;45249;-57
2022/07/13 05:41:32;;;;;;;;;8.25;7.25;;;;;26.47;28.95;101633.56;5039479;28;45277;-57
2022/07/13 05:43:59;;;;;;;;;7.75;7.50;;;;;26.51;29.32;101637.75;5039297;28;45187;-57
2022/07/13 05:46:25;;;;;;;;;7.75;7.25;;;;;26.51;28.77;101637.75;5039116;28;46606;-57
2022/07/13 05:48:50;;;;;;;;;7.25;6.50;;;;;26.53;29.10;101638.53;5039056;28;45435;-57
2022/07/13 05:51:15;;;;;;;;;9.25;7.00;;;;;26.54;28.54;101642.09;5039267;28;45494;-56
2022/07/13 05:53:41;;;;;;;;;6.75;5.25;;;;;26.57;28.57;101644.59;5039205;28;45491;-56
2022/07/13 05:56:06;;;;;;;;;7.25;7.25;;;;;26.56;29.26;101638.31;5038820;28;51036;-57
2022/07/13 05:58:32;;;;;;;;;8.75;8.75;;;;;26.58;29.30;101644.47;5051755;28;45674;-57
2022/07/13 06:00:57;;;;;;;;;11.25;9.00;;;;;26.60;28.68;101649.75;5049527;28;45333;-56
2022/07/13 06:03:23;;;;;;;;;8.50;7.25;;;;;26.60;28.93;101647.94;5042230;28;49017;-56
2022/07/13 06:05:48;;;;;;;;;8.25;7.50;;;;;26.61;28.88;101641.56;5042564;28;45381;-57
2022/07/13 06:08:13;;;;;;;;;10.25;8.25;;;;;26.64;28.83;101645.03;5042488;28;45297;-57
2022/07/13 06:10:39;;;;;;;;;8.75;7.75;;;;;26.64;29.33;101639.63;5042275;28;45555;-57
2022/07/13 06:13:04;;;;;;;;;9.50;8.75;;;;;26.66;28.72;101651.19;5042367;28;45324;-56
2022/07/13 06:15:29;;;;;;;;;11.00;10.25;;;;;26.65;28.73;101641.38;5042640;28;46458;-57
2022/07/13 06:17:55;;;;;;;;;10.00;8.75;;;;;26.68;29.38;101646.53;5042208;28;45351;-57
2022/07/13 06:20:20;;;;;;;;;8.25;7.50;;;;;26.68;29.34;101647.41;5025640;28;45312;-57
2022/07/13 06:23:09;;;;;;;;;6.50;6.25;;;;;26.69;29.29;101648.25;5045785;28;45577;-56
2022/07/13 06:25:31;;;;;;;;;10.50;7.75;;;;;26.73;28.63;101644.41;5041634;28;45848;-57
2022/07/13 06:27:56;;;;;;;;;7.00;6.00;;;;;26.75;28.80;101647.88;5041899;28;47247;-57
2022/07/13 06:30:21;;;;;;;;;9.00;9.00;;;;;26.78;29.38;101647.69;5042187;28;45526;-56
2022/07/13 06:32:46;;;;;;;;;10.00;9.25;;;;;26.80;28.83;101653.81;5023896;28;45315;-57
2022/07/13 06:35:12;;;;;;;;;9.25;7.00;;;;;26.80;29.35;101640.34;5042194;28;46283;-57
2022/07/13 06:37:37;;;;;;;;;9.25;9.25;;;;;26.85;28.84;101643.56;5042112;28;45258;-57
2022/07/13 06:40:03;;;;;;;;;8.50;8.00;;;;;26.88;29.17;101645.19;5041635;28;46387;-57
2022/07/13 06:42:28;;;;;;;;;9.00;8.00;;;;;26.91;29.21;101645.84;5041988;28;45539;-57
2022/07/13 06:44:55;;;;;;;;;11.50;8.75;;;;;26.95;28.81;101638.41;5041915;28;45448;-56
2022/07/13 06:47:20;;;;;;;;;8.00;7.00;;;;;26.97;29.01;101630.22;5041632;28;45297;-57
2022/07/13 06:49:45;;;;;;;;;11.50;7.75;;;;;27.01;28.99;101637.97;5041981;28;45324;-56
2022/07/13 06:52:11;;;;;;;;;9.25;7.50;;;;;27.06;28.65;101648.47;5058781;28;45507;-57
2022/07/13 06:54:36;;;;;;;;;13.25;8.25;;;;;27.08;29.12;101644.69;5049122;28;45421;-56
2022/07/13 06:57:01;;;;;;;;;7.25;6.75;;;;;27.14;28.60;101640.66;5041680;28;45412;-57
2022/07/13 06:59:27;;;;;;;;;6.50;5.00;;;;;27.16;29.02;101638.75;5041752;28;45801;-56
2022/07/13 07:01:52;;;;;;;;;10.75;9.25;;;;;27.22;28.83;101646.41;5041552;28;45159;-57
2022/07/13 07:04:17;;;;;;;;;10.25;8.00;;;;;27.24;28.62;101646.28;5041725;28;45418;-57
2022/07/13 07:06:43;;;;;;;;;16.75;12.25;;;;;27.31;28.45;101652.09;5041266;28;45261;-58
2022/07/13 07:09:08;;;;;;;;;10.75;10.25;;;;;27.33;28.62;101650.16;5041810;28;45255;-57
2022/07/13 07:11:34;;;;;;;;;13.00;10.75;;;;;27.36;29.21;101648.13;5057975;28;45419;-56
2022/07/13 07:13:59;;;;;;;;;9.00;8.00;;;;;27.39;28.39;101644.34;5061598;28;46358;-57
2022/07/13 07:16:25;;;;;;;;;9.50;7.50;;;;;27.41;28.51;101645.97;5061455;28;45336;-57
2022/07/13 07:18:50;;;;;;;;;10.00;7.00;;;;;27.45;28.88;101648.47;5061904;28;45426;-57
2022/07/13 07:21:16;;;;;;;;;9.25;8.50;;;;;27.49;28.15;101647.28;5039412;28;45624;-58
2022/07/13 07:23:41;;;;;;;;;9.25;8.25;;;;;27.52;28.61;101652.44;5041442;28;45318;-57
2022/07/13 07:26:07;;;;;;;;;9.50;8.25;;;;;27.54;29.03;101651.34;5040957;28;45223;-58
2022/07/13 07:28:32;;;;;;;;;10.50;8.25;;;;;27.56;28.66;101653.97;5041566;28;45386;-57
2022/07/13 07:30:58;;;;;;;;;7.25;6.50;;;;;27.60;29.10;101654.59;5023088;28;45438;-57
2022/07/13 07:33:23;;;;;;;;;8.00;6.50;;;;;27.62;28.23;101653.50;5041221;28;45274;-57
2022/07/13 07:35:49;;;;;;;;;7.00;7.00;;;;;27.65;28.70;101652.44;5054093;28;45282;-58
2022/07/13 07:38:14;;;;;;;;;8.25;7.25;;;;;27.67;28.60;101647.78;5039975;28;45357;-58
2022/07/13 07:40:40;;;;;;;;;7.00;7.00;;;;;27.72;28.63;101653.69;5040661;28;45587;-57
2022/07/13 07:43:05;;;;;;;;;8.00;6.75;;;;;27.74;28.53;101649.91;5041086;28;46354;-58
2022/07/13 07:45:31;;;;;;;;;7.00;7.00;;;;;27.78;28.65;101660.50;5041021;28;45422;-58
2022/07/13 07:47:56;;;;;;;;;4.25;4.25;;;;;27.81;27.95;101655.75;5041176;28;45276;-58
2022/07/13 07:50:21;;;;;;;;;5.00;5.00;;;;;27.84;28.19;101655.50;5040831;28;45600;-58
2022/07/13 07:52:47;;;;;;;;;6.00;6.00;;;;;27.86;28.60;101644.59;5040865;28;45406;-58
2022/07/13 07:55:13;;;;;;;;;9.25;8.00;;;;;27.90;28.06;101648.81;5040571;28;45396;-57
2022/07/13 07:57:46;;;;;;;;;6.00;5.50;;;;;27.96;28.46;101647.47;5040897;28;45435;-57
2022/07/13 08:00:13;;;;;;;;;5.25;5.25;;;;;28.00;28.41;101648.97;5022469;28;45374;-58
2022/07/13 08:02:38;;;;;;;;;6.25;6.25;;;;;28.03;27.74;101648.75;5022585;28;46634;-57
2022/07/13 08:05:05;;;;;;;;;7.75;6.25;;;;;28.09;28.73;101647.44;5040489;28;45308;-58
2022/07/13 08:07:30;;;;;;;;;4.25;4.25;;;;;28.15;28.13;101647.00;5040871;28;45250;-58
2022/07/13 08:09:56;;;;;;;;;5.75;5.25;;;;;28.19;28.40;101641.25;5043907;28;45146;-58
2022/07/13 08:12:21;;;;;;;;;6.75;6.25;;;;;28.27;27.90;101642.53;5060584;28;46911;-58
2022/07/13 08:14:47;;;;;;;;;6.00;4.50;;;;;28.32;28.02;101643.03;5042629;28;45287;-58
2022/07/13 08:17:12;;;;;;;;;6.75;5.25;;;;;28.39;27.75;101641.59;5060909;28;45221;-58
2022/07/13 08:19:38;;;;;;;;;6.00;5.25;;;;;28.43;28.26;101643.09;5060428;28;45285;-58
2022/07/13 08:22:03;;;;;;;;;8.00;6.25;;;;;28.48;28.38;101640.03;5050366;28;46214;-58
2022/07/13 08:24:28;;;;;;;;;13.50;10.75;;;;;28.53;27.63;101636.00;5039381;28;45254;-58
2022/07/13 08:26:54;;;;;;;;;7.00;5.75;;;;;28.59;28.16;101644.59;5040637;28;45263;-58
2022/07/13 08:29:20;;;;;;;;;6.25;5.50;;;;;28.64;27.98;101645.09;5040402;28;45237;-58
2022/07/13 08:31:45;;;;;;;;;8.00;6.00;;;;;28.69;28.11;101640.25;5040281;28;45604;-58
2022/07/13 08:39:38;;;;;;;;;7.00;6.00;;;;;28.88;27.88;101644.22;5039950;28;45245;-57
2022/07/13 08:42:04;;;;;;;;;7.25;7.25;;;;;28.96;27.90;101644.50;5039951;28;45258;-57
2022/07/13 08:44:30;;;;;;;;;7.50;4.25;;;;;28.98;28.09;101640.69;5040329;28;45233;-58
2022/07/13 08:46:57;;;;;;;;;12.25;7.50;;;;;29.05;28.01;101641.06;5039929;28;45489;-58
2022/07/13 08:49:25;;;;;;;;;9.00;6.00;;;;;29.13;27.93;101640.44;5022423;28;45413;-58
2022/07/13 08:51:51;;;;;;;;;9.25;8.00;;;;;29.16;27.92;101634.81;5022334;28;46300;-58
2022/07/13 08:54:17;;;;;;;;;8.00;7.00;;;;;29.24;28.04;101632.34;5040051;28;45243;-58
2022/07/13 08:56:42;;;;;;;;;8.75;6.75;;;;;29.32;27.94;101634.47;5039495;28;45148;-59
2022/07/13 08:59:08;;;;;;;;;7.00;6.00;;;;;29.33;27.75;101634.34;5039918;28;45543;-58
2022/07/13 09:01:33;;;;;;;;;6.00;5.75;;;;;29.42;27.79;101635.47;5039713;28;46085;-58
2022/07/13 09:04:00;;;;;;;;;8.50;5.50;;;;;29.47;27.95;101641.38;5039959;28;45252;-58
2022/07/13 09:06:41;;;;;;;;;6.50;5.50;;;;;29.55;27.67;101637.16;5040015;28;45242;-58
2022/07/13 09:09:08;;;;;;;;;9.00;8.25;;;;;29.62;27.54;101633.84;5039940;28;45167;-58
2022/07/13 09:11:34;;;;;;;;;7.00;6.25;;;;;29.68;27.67;101637.88;5039039;28;45313;-58
2022/07/13 09:13:59;;;;;;;;;3.50;3.50;;;;;29.74;27.65;101628.41;5049466;28;45265;-58
2022/07/13 09:16:28;;;;;;;;;7.50;6.75;;;;;29.81;27.69;101629.59;5039630;28;45305;-58
2022/07/13 09:19:00;;;;;;;;;9.25;6.50;;;;;29.84;27.73;101629.38;5039705;28;45336;-58
2022/07/13 09:21:27;;;;;;;;;7.25;6.00;;;;;29.90;27.68;101628.03;5026087;28;48281;-58
2022/07/13 09:23:58;;;;;;;;;6.50;5.00;;;;;29.91;27.31;101637.88;5039656;28;45486;-58
2022/07/13 09:26:44;;;;;;;;;4.25;4.25;;;;;29.94;27.21;101633.06;5039441;28;45269;-58
2022/07/13 09:29:13;;;;;;;;;5.50;5.50;;;;;29.95;27.19;101629.38;5039368;28;45182;-57
2022/07/13 09:31:52;;;;;;;;;4.75;4.25;;;;;29.99;27.12;101636.25;5021410;28;46150;-58
2022/07/13 09:34:18;;;;;;;;;8.75;7.50;;;;;30.02;27.29;101629.72;5039594;28;45504;-58
2022/07/13 09:36:44;;;;;;;;;4.00;4.00;;;;;30.06;27.32;101633.88;5042914;28;45278;-58
2022/07/13 09:39:09;;;;;;;;;6.25;5.50;;;;;30.09;27.24;101633.63;5042754;28;45253;-58
2022/07/13 09:41:35;;;;;;;;;6.25;6.25;;;;;30.13;27.01;101629.69;5042207;28;45463;-57
2022/07/13 09:47:02;;;;;;;;;7.25;6.75;;;;;30.25;26.96;101630.50;5042981;28;45434;-58
2022/07/13 09:49:31;;;;;;;;;5.50;3.75;;;;;30.26;26.75;101625.94;5042933;28;45531;-58
2022/07/13 09:51:58;;;;;;;;;6.50;5.50;;;;;30.31;27.02;101621.88;5042513;28;46310;-58
2022/07/13 09:54:26;;;;;;;;;8.00;5.50;;;;;30.36;27.08;101618.75;5024638;28;45286;-58
2022/07/13 09:56:53;;;;;;;;;8.50;5.25;;;;;30.41;26.84;101619.22;5042621;28;45209;-58
2022/07/13 09:59:19;;;;;;;;;5.25;4.00;;;;;30.43;26.76;101625.38;5042719;28;45590;-58
2022/07/13 10:01:45;;;;;;;;;4.00;4.00;;;;;30.48;26.71;101622.31;5024422;28;47015;-58
2022/07/13 10:04:12;;;;;;;;;6.00;5.00;;;;;30.54;26.44;101615.47;5042523;28;45380;-58
2022/07/13 10:06:38;;;;;;;;;6.50;5.25;;;;;30.62;26.92;101607.56;5042699;28;45415;-58
2022/07/13 10:09:04;;;;;;;;;6.50;6.50;;;;;30.70;26.68;101615.88;5042566;28;45285;-58
2022/07/13 10:11:30;;;;;;;;;3.50;3.50;;;;;30.78;26.28;101610.66;5040596;28;46702;-58
2022/07/13 10:13:57;;;;;;;;;3.50;3.50;;;;;30.86;26.27;101614.56;5044696;28;45455;-58
2022/07/13 10:16:22;;;;;;;;;4.00;4.00;;;;;30.94;26.05;101612.03;5062477;28;45212;-58
2022/07/13 10:18:50;;;;;;;;;3.00;3.00;;;;;31.01;26.67;101615.94;5062531;28;45497;-58
2022/07/13 10:21:33;;;;;;;;;1.25;1.00;;;;;31.07;26.22;101610.00;5059196;28;45198;-58
2022/07/13 10:23:59;;;;;;;;;4.00;4.00;;;;;31.18;25.58;101616.31;5042415;28;45190;-58
2022/07/13 10:26:25;;;;;;;;;3.75;3.75;;;;;31.24;25.61;101608.47;5024211;28;45256;-58
2022/07/13 10:29:05;;;;;;;;;4.00;4.00;;;;;31.36;25.69;101611.97;5042223;28;45404;-58
2022/07/13 10:31:33;;;;;;;;;3.75;3.75;;;;;31.41;25.47;101596.13;5041921;28;46077;-58
2022/07/13 10:34:00;;;;;;;;;5.00;3.50;;;;;31.58;26.00;101613.59;5041945;28;45250;-58
2022/07/13 10:36:51;;;;;;;;;6.00;6.00;;;;;31.72;25.20;101611.53;5042334;28;45405;-58
2022/07/13 10:39:18;;;;;;;;;5.75;4.75;;;;;31.84;25.35;101610.41;5047021;28;46265;-58
2022/07/13 10:41:59;;;;;;;;;4.75;3.00;;;;;32.01;25.94;101606.16;5041792;28;45471;-58
2022/07/13 10:44:41;;;;;;;;;4.00;3.75;;;;;32.17;25.51;101605.56;5041837;28;45285;-58
2022/07/13 10:47:12;;;;;;;;;4.00;4.00;;;;;32.32;25.22;101597.88;5041185;28;45335;-58
2022/07/13 10:49:48;;;;;;;;;3.50;3.50;;;;;32.56;25.33;101607.44;5041781;28;45238;-58
2022/07/13 10:52:26;;;;;;;;;5.00;4.00;;;;;32.89;25.38;101600.66;5041635;28;47070;-58
2022/07/13 10:55:05;;;;;;;;;3.75;3.75;;;;;33.37;25.78;101606.06;5041597;28;45340;-58
2022/07/13 10:57:32;;;;;;;;;7.00;4.75;;;;;33.86;25.59;101606.69;5048703;28;45330;-58
2022/07/13 11:00:02;;;;;;;;;3.00;3.00;;;;;34.43;25.83;101600.06;5061497;28;45578;-62
2022/07/13 11:02:51;;;;;;;;;3.00;3.00;;;;;35.08;25.92;101597.94;5043363;28;47117;-58
2022/07/13 11:05:19;;;;;;;;;3.75;3.50;;;;;35.74;25.85;101599.06;5060823;28;45331;-58
2022/07/13 11:07:49;;;;;;;;;2.00;2.00;;;;;36.36;25.65;101606.00;5061767;28;45280;-58
2022/07/13 11:10:26;;;;;;;;;3.50;3.50;;;;;37.01;25.97;101601.47;5060337;28;45474;-58
2022/07/13 11:13:02;;;;;;;;;5.50;4.75;;;;;37.66;25.01;101604.09;5061324;28;45539;-58
2022/07/13 11:15:47;;;;;;;;;4.00;4.00;;;;;38.41;25.32;101598.97;5043584;28;45611;-58
2022/07/13 11:18:22;;;;;;;;;2.75;2.75;;;;;39.11;25.36;101594.97;5044131;28;45456;-58
2022/07/13 11:21:05;;;;;;;;;4.00;4.00;;;;;39.87;25.04;101596.53;5061406;28;45438;-59
2022/07/13 11:26:51;;;;;;;;;2.25;2.25;;;;;41.36;24.21;101602.94;5061218;28;45302;-59
2022/07/13 11:29:18;;;;;;;;;3.00;3.00;;;;;41.98;23.40;101613.13;5061293;28;45367;-60
2022/07/13 11:31:43;;;;;;;;;5.00;2.25;;;;;42.47;23.11;101606.34;5061207;28;46792;-58
2022/07/13 11:34:09;;;;;;;;;5.25;4.00;;;;;42.95;22.94;101605.22;5043002;28;47286;-59